Terminal Aerodrome Forecast
Issued by NWS

Home | Current Version | Previous Version | Text Only | Print | Product List | Glossary On
Versions: 1 2 3 4 5 6 7 8 9 10 11 12 13 14 15 16 17
000
FTUS44 KJAN 011700
TAFHKS
TAF
KHKS 011724Z 0118/0218 16007KT P6SM SCT040 BKN150
     FM012000 15005KT P6SM VCSH SCT050 BKN100
     FM020900 17004KT 4SM BR OVC025
     FM021100 15004KT 4SM BR OVC007
     FM021400 15006KT P6SM OVC007
     FM021500 17007KT P6SM BKN015=

USA.gov is the U.S. government's official web portal to all federal, state and local government web resources and services.